x

8452944 - Conimicut Light, Ri (cptr1) Weather Station

1:54 - Mon 30th May 2016 All times are EDT. -4 hours from GMT.

  • Wind
    20mph, 21mph gusts
  • Sea Temp 61°f
  • Ar Temp 67°f
  • Sea Pressure 1015mb
  • 8452944 - Conimicut Light, Ri
  • 8452944 - Conimicut Light, Ri

More Historic Weather Station data

Upgrade to MSW Pro to gain access to the past 30 days of data for over 8000 Wavebouys and Weather Stations around the globe.

Join Pro

Comparision Forecast

View Surf forecast
   
Seg 05/30 1:54 20 21 mph 1015mb 61f 67f
1:48 18 21 mph 1015mb 61f 68f
1:42 18 21 mph 1015mb 61f 68f
1:36 20 21 mph 1015mb 61f 68f
1:30 20 21 mph 1015.1mb 61f 68f
1:24 18 21 mph 1015.1mb 61f 68f
1:18 18 20 mph 1015.2mb 61f 68f
1:12 18 21 mph 1015.3mb 61f 68f
1:06 18
mph
1015.4mb 61f 68f
1:00 14 18 mph 1015.5mb 61f 68f
12:54 7 10 mph 1015.6mb 62f 69f
12:48 7 9 mph 1015.6mb 62f 67f
12:42 6 8 mph 1015.6mb 62f 67f
12:36 7 8 mph 1015.7mb 63f 68f
12:30 3 6 mph 1015.7mb 64f 67f
12:24 3 6 mph 1015.8mb 64f 66f
12:18 5 6 mph 1015.8mb 65f 66f
12:12 5 6 mph 1015.9mb 65f 65f
12:06 5 6 mph 1015.9mb 65f 65f
12:00 5 6 mph 1016mb 66f 65f
11:54 5
mph
1016mb 66f 65f
11:48 5
mph
1016.1mb 66f 64f
11:42 5 6 mph 1016.1mb 66f 64f
11:36 5 6 mph 1016.2mb 67f 64f
11:30 6
mph
1016.1mb 67f 64f
11:24 5 6 mph 1016.1mb 67f 64f
11:18 5 6 mph 1016.1mb 67f 63f
11:12  -  2 mph 1016.2mb 67f 63f
11:06  -  1 mph 1016.3mb 67f 62f
11:00  -  1 mph 1016.3mb 67f 63f
10:54  -  1 mph 1016.4mb 67f 62f
10:48  -  1 mph 1016.4mb 67f 62f
10:42  -  mph 1016.5mb 67f 61f
10:36  -  mph 1016.5mb 67f 61f
10:30  -  mph 1016.6mb 67f 61f
10:24  -  2 mph 1016.6mb 67f 62f
10:18 1 3 mph 1016.7mb 67f 61f
10:12 2
mph
1016.7mb 67f 61f
10:06 2 3 mph 1016.8mb 67f 60f
10:00 2 3 mph 1016.8mb 67f 60f
9:54 2 3 mph 1017mb 67f 60f
9:48 1 2 mph 1016.9mb 67f 60f
9:42 1 2 mph 1017mb 67f 60f
9:36  -  3 mph 1016.9mb 67f 60f
9:30 2 3 mph 1016.9mb 68f 60f
9:24  -  2 mph 1016.9mb 68f 60f
9:18 2 3 mph 1017mb 68f 59f
9:12  -  2 mph 1017.2mb 68f 59f
9:06  -  2 mph 1017mb 68f 60f
9:00  -  2 mph 1017.1mb 68f 59f
8:54 3 5 mph 1016.9mb 68f 60f
8:48 2 3 mph 1016.8mb 69f 60f
8:42 2 5 mph 1017.1mb 69f 60f
8:36 5 6 mph 1017.1mb 69f 60f
8:30 5 6 mph 1017mb 69f 60f
8:24 5 6 mph 1017.1mb 69f 60f
8:18 2 3 mph 1017.2mb 69f 60f
8:12 3 5 mph 1017.3mb 69f 60f
8:06 2 3 mph 1017.3mb 69f 59f
8:00 1 3 mph 1017.4mb 69f 59f
7:54 3 6 mph 1017.3mb 69f 59f
7:48 2 3 mph 1017.4mb 69f 58f
7:42 2 3 mph 1017.4mb 69f 59f
7:36 2 5 mph 1017.3mb 69f 59f
7:30 5 7 mph 1017.3mb 69f 59f
7:24 5 6 mph 1017.3mb 69f 59f
7:18 3 5 mph 1017.4mb 69f 59f
7:12 5 6 mph 1017.4mb 69f 59f
7:06 3 7 mph 1017.4mb 69f 59f
7:00 7 8 mph 1017.2mb 69f 59f
6:54 6 8 mph 1017.3mb 69f 59f
6:48 7 8 mph 1017.3mb 69f 59f
6:42 5 8 mph 1017.8mb 69f 59f
6:36 8 11 mph 1017.5mb 69f 59f
6:30 9 11 mph 1017.7mb 69f 59f
6:24 10 11 mph 1017.7mb 69f 58f
6:18 9 11 mph 1017.9mb 69f 58f
6:12 11 13 mph 1018mb 69f 58f
6:06 5 6 mph 1017.9mb 69f 58f
6:00 6 7 mph 1017.4mb 69f 59f
5:54 7 8 mph 1017.3mb 69f 58f
5:48 6 8 mph 1017.3mb 69f 58f
5:42 7 8 mph 1017.4mb 69f 58f
5:36 7 8 mph 1017.5mb 69f 59f
5:30 6 8 mph 1017.7mb 69f 58f
5:24 7 8 mph 1017.6mb 69f 58f
5:18 6 8 mph 1017.5mb 69f 58f
5:12 6 8 mph 1017.5mb 69f 58f
5:06 7 8 mph 1017.6mb 69f 59f
5:00 6 7 mph 1017.7mb 69f 59f
4:54 5 6 mph 1017.8mb 69f 58f
4:48 3 6 mph 1017.8mb 69f 58f
4:42 6 7 mph 1017.8mb 69f 59f
4:36 6 7 mph 1017.9mb 69f 58f
4:30 7 8 mph 1017.9mb 69f 58f
4:24 6 7 mph 1018mb 69f 58f
4:18 5 6 mph 1018mb 69f 58f
4:12 5 7 mph 1018.1mb 68f 58f
4:06 6 7 mph 1018.1mb 68f 58f
4:00 6 7 mph 1018.2mb 68f 58f
3:54 7
mph
1018.2mb 68f 58f
3:48 7
mph
1018.3mb 67f 58f
3:42 7 8 mph 1018.3mb 67f 58f
3:36 7 9 mph 1018.3mb 65f 58f
3:30 6 8 mph 1018.5mb 64f 58f
3:24 8 9 mph 1018.5mb 64f 58f
3:18 7 8 mph 1018.6mb 64f 58f
3:12 6 8 mph 1018.7mb 64f 58f
3:06 6 7 mph 1018.8mb 63f 58f
3:00 7 8 mph 1018.8mb 63f 58f
2:54 7 8 mph 1018.9mb 63f 58f
2:48 7 8 mph 1018.9mb 62f 58f
2:42 6 7 mph 1019mb 62f 58f
2:36 6 7 mph 1019.1mb 62f 58f
2:30 5 6 mph 1019.2mb 62f 58f
2:24 6
mph
1019.3mb 62f 58f
2:18 5 7 mph 1019.4mb 62f 58f
2:12 5 6 mph 1019.4mb 62f 58f
2:06 5 6 mph 1019.5mb 62f 58f
2:00 3 5 mph 1019.7mb 63f 58f
1:54 5 6 mph 1019.7mb 63f 58f
1:48  -  mph 1019.6mb 63f 59f
1:42  -  mph 1019.7mb 64f 58f
1:36  -  mph 1019.8mb 64f 59f
1:30 6 7 mph 1019.9mb 64f 58f
1:24 6
mph
1020mb 65f 58f
1:18 5 6 mph 1020.1mb 65f 58f
1:12 6
mph
1020.2mb 66f 58f
1:06 5 6 mph 1020.3mb 66f 58f
1:00 5 6 mph 1020.3mb 66f 58f
12:54 6 7 mph 1020.4mb 67f 58f
12:48 6 7 mph 1020.4mb 67f 58f
12:42 5 7 mph 1020.5mb 67f 58f
12:36 6 7 mph 1020.5mb 67f 58f
12:30 6 8 mph 1020.6mb 68f 58f
12:24 7 8 mph 1020.6mb 68f 58f
12:18 7 8 mph 1020.7mb 68f 58f
12:12 7 8 mph 1020.7mb 68f 58f
12:06 5 7 mph 1020.8mb 68f 59f
12:00 6 7 mph 1020.9mb 68f 59f
Dom 05/29 11:54 6 7 mph 1020.9mb 68f 59f
11:48  -  mph 1021mb 68f 59f
11:42  -  mph 1021.1mb 68f 59f
11:36  -  mph 1021mb 68f 59f
11:30 6 7 mph 1021mb 68f 59f
11:24 5 8 mph 1021mb 68f 59f
11:18  -  mph 1021mb 68f 59f
11:12  -  mph 1021mb 68f 59f
11:06  -  mph 1021.1mb 68f 59f
11:00  -  mph - 68f 59f
10:54  -  mph - 68f 60f
10:48 6 8 mph 1021.2mb 68f -
10:42 6 7 mph 1021.3mb 68f -
10:36 6 9 mph 1021.3mb 68f -
10:30  -  mph 1021.4mb - -
10:24  -  mph 1021.6mb - -
10:18  -  mph - 68f -
10:12  -  mph - 68f -
10:06  -  mph - 69f -
10:00  -  mph - 69f 60f
9:54  -  mph - 69f 60f
9:48 9 11 mph 1021.6mb 69f -
9:42 8 13 mph 1021.7mb 69f -
9:36 9 13 mph 1021.7mb 69f -
9:30  -  mph 1021.6mb - -
9:24  -  mph 1021.8mb - -
9:18  -  mph - 69f 60f
9:12  -  mph - 69f 61f
9:06  -  mph - 69f 61f
9:00  -  mph 1021.3mb 69f -
8:54  -  mph 1021.4mb 68f -
8:48  -  mph 1021.4mb 69f -
8:42  -  mph 1021.5mb 69f -
8:36  -  mph 1021.4mb 69f -
8:30  -  mph 1021.5mb - -
8:24  -  mph 1021.6mb - -
8:18  -  mph - 70f 66f
8:12  -  mph - 70f 66f
8:06  -  mph - 70f 66f
8:00  -  mph 1021.5mb 70f 66f
7:54  -  mph 1021.5mb 70f 65f
7:48  -  mph 1021.5mb 70f -
7:42  -  mph 1021.5mb 70f -
7:36  -  mph 1021.5mb 70f -
7:30 6 9 mph - - -
7:24 9 11 mph - - -
7:18  -  mph - 70f 66f
7:12  -  mph - 70f 67f
7:06  -  mph - 70f 68f
7:00  -  mph 1021mb 70f -
6:54  -  mph 1020.9mb 70f -
6:48  -  mph - 70f -
6:42  -  mph - 70f -
6:36  -  mph - 70f -
6:30 11
mph
1020.5mb - -
6:24 11 13 mph 1020.4mb - -
6:18  -  mph - 70f 71f
6:12  -  mph - 70f 71f
6:06  -  mph - 70f 72f
6:00  -  mph - 70f -
5:54  -  mph - 70f -
5:48  -  mph - 70f -
5:42  -  mph - 70f -
5:36  -  mph - 70f -
5:30 10 13 mph 1020.9mb 70f 71f
5:24 8 10 mph 1021mb 70f 71f
5:18 9 10 mph 1020.9mb 70f 70f
5:12 10 13 mph 1020.9mb 70f 69f
5:06 14
mph
1021mb 70f 69f
5:00 14
mph
1021mb 70f 69f
4:54 14 15 mph 1020.9mb 70f 69f
4:48 14
mph
1021mb 70f 69f
4:42 13 14 mph 1021.1mb 70f 70f
4:36 9 10 mph 1021.1mb 70f 71f
4:30 8 9 mph 1021.1mb 70f 71f
4:24 7 8 mph 1021.1mb 70f 71f
4:18 6
mph
1021.1mb 70f 72f
4:12 5
mph
1021.2mb 70f 72f
4:06 5 7 mph 1021.4mb 70f 72f
4:00 7 9 mph 1021.3mb 70f 71f
3:54 9 11 mph 1021.3mb 70f 71f
3:48 11 13 mph 1021.4mb 70f 71f
3:42 13 14 mph 1021.4mb 70f 71f
3:36 10 13 mph 1021.4mb 70f 71f
3:30 10 14 mph 1021.3mb 70f 71f
3:24 13 14 mph 1021.3mb 69f 71f
3:18 14 15 mph 1021.4mb 68f 71f
3:12 14 18 mph 1021.4mb 68f 70f
3:06 16 17 mph 1021.5mb 68f 70f
3:00 13 15 mph 1021.5mb 68f 70f
2:54 13 14 mph 1021.7mb 68f 71f
2:48 6 8 mph 1021.7mb 68f 75f
2:42 7 8 mph 1021.6mb 68f 76f
2:36 8 10 mph 1021.5mb 68f 77f
2:30 8 10 mph 1021.5mb 68f 77f
2:24 6 8 mph 1021.5mb 68f 77f
2:18 6
mph
1021.6mb 67f 77f
2:12  -  2 mph 1021.7mb 67f 75f
2:06  -  2 mph 1021.7mb 67f 74f
2:00  -  1 mph 1021.7mb 67f 74f
1:54  -  2 mph 1021.8mb 66f 74f
1:48  -  2 mph 1021.8mb 66f 73f
1:42  -  1 mph 1021.9mb 67f 73f
1:36  -  1 mph 1021.9mb 67f 74f
1:30  -  3 mph 1022mb 67f 73f
1:24 2 6 mph 1022mb 67f 74f
1:18 3 5 mph 1022.1mb 67f 74f
1:12 3 5 mph 1022.1mb 67f 74f
1:06 2 7 mph 1022.2mb 67f 73f
1:00 6
mph
1022.3mb 67f 72f
12:54 5 6 mph 1022.3mb 67f 73f
12:48 5 7 mph 1022.2mb 67f 72f
12:42 6 9 mph 1022.3mb 67f 71f
12:36 7 8 mph 1022.2mb 67f 71f
12:30 5 7 mph 1022.3mb 67f 72f
12:24 7 9 mph 1022.3mb 67f 70f
12:18 8 9 mph 1022.3mb 67f 71f
12:12 6 8 mph 1022.4mb 67f 72f
12:06 5 8 mph 1022.4mb 67f 72f
12:00 6 8 mph 1022.4mb 66f 71f
11:54 6 7 mph 1022.4mb 66f 72f
11:48 3 8 mph 1022.4mb 66f 71f
11:42 7 8 mph 1022.5mb 66f 72f
11:36 6 8 mph 1022.5mb 67f 72f
11:30 7 8 mph 1022.6mb 67f 72f
11:24 6 9 mph 1022.7mb 67f 72f
11:18 6 9 mph 1022.7mb 67f 72f
11:12 6 8 mph 1022.7mb 67f 72f
11:06 7 8 mph 1022.7mb 67f 72f
11:00 6 9 mph 1022.7mb 67f 72f
10:54 5 7 mph 1022.8mb 68f 72f
10:48 8 10 mph 1022.8mb 68f 71f
10:42 6 7 mph 1022.8mb 68f 71f
10:36 7 8 mph 1022.7mb 68f 71f
10:30 7 8 mph 1022.7mb 68f 70f
10:24 7 9 mph 1022.7mb 68f 70f
10:18 7 9 mph 1022.7mb 68f 70f
10:12 7 9 mph 1022.7mb 68f 70f
10:06 7 9 mph 1022.6mb 68f 70f
10:00 8 10 mph 1022.6mb 68f 69f
9:54 8 9 mph 1022.6mb 68f 69f
9:48 7 10 mph 1022.5mb 68f 69f
9:42 8 10 mph 1022.5mb 68f 69f
9:36 8 10 mph 1022.5mb 68f 69f
9:30 8 11 mph 1022.4mb 68f 69f
9:24 10 14 mph 1022.3mb 68f 69f
9:18 10 14 mph 1022.3mb 68f 69f
9:12 8 9 mph 1022.4mb 67f 69f
9:06 8 9 mph 1022.5mb 67f 69f
9:00 10
mph
1022.4mb 67f 69f
8:54 9 10 mph 1022.4mb 67f 69f
8:48 8 13 mph 1022.3mb 67f 69f
8:42 9 10 mph 1022.3mb 67f 69f
8:36 9 10 mph 1022.3mb 67f 69f
8:30 7 9 mph 1022.3mb 67f 69f
8:24 7 9 mph 1022.2mb 67f 68f
8:18 9
mph
1022.3mb 67f 68f
8:12 6 7 mph 1022.3mb 67f 68f
8:06 6 8 mph 1022.3mb 67f 68f
8:00 7 9 mph 1022.3mb 67f 68f
7:54 8 9 mph 1022.2mb 67f 67f
7:48 6 9 mph 1022.1mb 67f 67f
7:42 7 11 mph 1022mb 67f 67f
7:36 9 10 mph 1022mb 67f 67f
7:30 9 11 mph 1021.9mb 67f 67f
7:24 6 7 mph 1021.9mb 67f 67f
7:18 5 8 mph 1021.8mb 67f 67f
7:12 7 9 mph 1021.7mb 67f 66f
7:06 6 8 mph 1021.7mb 67f 67f
7:00 5 7 mph 1021.7mb 67f 66f
6:54 6 7 mph 1021.6mb 67f 66f
6:48 5 6 mph 1021.6mb 67f 66f
6:42  -  1 mph 1021.5mb 66f 65f
6:36 1 2 mph 1021.6mb 66f 65f
6:30 2 3 mph 1021.4mb 66f 65f
6:24 3 5 mph 1021.4mb 66f 65f
6:18 5
mph
1021.3mb 66f 65f
6:12 5 6 mph 1021.4mb 66f 65f
6:06 5 6 mph 1021.3mb 66f 65f
6:00 7 9 mph 1021.2mb 66f 65f
5:54 9
mph
1021mb 66f 65f
5:48 5 6 mph 1021.2mb 65f 65f
5:42 5 6 mph 1021.1mb 65f 65f
5:36 5 6 mph 1021mb 65f 65f
5:30 3 5 mph 1021mb 65f 65f
5:24 5 6 mph 1020.8mb 65f 65f
5:18 3 5 mph 1020.7mb 65f 65f
5:12 5 6 mph 1020.6mb 66f 65f
5:06 5 6 mph 1020.5mb 66f 65f
5:00 5 6 mph 1020.5mb 66f 65f
4:54 5 6 mph 1020.4mb 66f 65f
4:48 5 7 mph 1020.4mb 66f 65f
4:42 6
mph
1020.4mb 66f 65f
4:36 5 6 mph 1020.6mb 66f 65f
4:30 2 7 mph 1020.6mb 66f 65f
4:24 8 9 mph 1020.3mb 66f 65f
4:18 8 9 mph 1020.2mb 66f 65f
4:12 8 9 mph 1020.2mb 66f 65f
4:06 9
mph
1020.3mb 66f 65f
4:00 9 11 mph 1020.4mb 66f 65f
3:54 10 11 mph 1020.3mb 66f 65f
3:48 10
mph
1020.3mb 66f 65f
3:42 9 11 mph 1020.3mb 66f 65f
3:36 10 11 mph 1020.3mb 66f 65f
3:30 10 11 mph 1020.3mb 66f 65f
3:24 10 11 mph 1020.3mb 66f 65f
3:18 11
mph
1020.4mb 66f 65f
3:12 11
mph
1020.3mb 66f 65f
3:06 10 11 mph 1020.3mb 65f 65f
3:00 10 11 mph 1020.5mb 65f 65f
2:54 10 13 mph 1020.4mb 65f 65f
2:48 11 13 mph 1020.4mb 65f 65f
2:42 11 13 mph 1020.3mb 65f 65f
2:36 11 13 mph 1020.4mb 65f 65f
2:30 11 14 mph 1020.3mb 65f 65f
2:24 13 14 mph 1020.3mb 65f 65f
2:18 14
mph
1020.4mb 65f 65f
2:12 14
mph
1020.4mb 65f 66f
2:06 14 15 mph 1020.5mb 65f 66f
2:00 14 15 mph 1020.4mb 65f 66f
1:54 15
mph
1020.4mb 65f 66f
1:48  -  mph 1020.4mb 65f 66f
1:42  -  mph 1020.5mb 65f 67f
1:36  -  mph 1020.5mb 65f 67f
1:30 14 15 mph 1020.4mb 65f 67f
1:24 13 14 mph 1020.3mb 65f 67f
1:18 14 15 mph 1020.3mb 65f 67f
1:12 15
mph
1020.4mb 65f 67f
1:06 14 15 mph 1020.4mb 65f 67f
1:00 14
mph
1020.3mb 65f 67f
12:54 14
mph
1020.3mb 65f 68f
12:48 14
mph
1020.3mb 65f 68f
12:42 13 14 mph 1020.4mb 65f 68f
12:36 14
mph
1020.5mb 65f 68f
12:30 13 14 mph 1020.5mb 64f 68f
12:24 11 14 mph 1020.5mb 64f 68f
12:18 13 14 mph 1020.5mb 64f 68f
12:12 13 14 mph 1020.5mb 64f 69f
12:06 13 14 mph 1020.4mb 64f 68f
12:00 13 14 mph 1020.4mb 64f 68f
Sáb 05/28 11:54 13 14 mph 1020.4mb 64f 68f
11:48 13 14 mph 1020.3mb 64f 68f
11:42 11 13 mph 1020.3mb 64f 69f
11:36 10 13 mph 1020.4mb 64f 70f
11:30 11 13 mph 1020.4mb 64f 69f
11:24 11 13 mph 1020.4mb 64f 69f
11:18  -  mph 1020.4mb 65f 69f
11:12  -  mph 1020.4mb 65f 68f
11:06  -  mph 1020.4mb 66f 68f
11:00  -  mph 1020.4mb 66f 68f
10:54  -  mph 1020.3mb 66f 68f
10:48 10 13 mph - 66f -
10:42 11 13 mph - 66f -
10:36 10 13 mph - 66f -
10:30 11
mph
1020.3mb - -
10:24 10 11 mph 1020.3mb - -
10:18  -  mph 1020.3mb 67f 67f
10:12  -  mph 1020.3mb 66f 67f
10:06  -  mph 1020.3mb 66f 67f
10:00  -  mph 1020.3mb - -
9:54  -  mph 1020.3mb - -
9:48  -  mph - 66f 68f
9:42  -  mph - 66f 68f
9:36  -  mph - 66f 68f
9:30 14
mph
- - -
9:24 14
mph
- - -
9:18  -  mph 1020.1mb 66f 68f
9:12  -  mph 1020.1mb 66f 67f
9:06  -  mph 1020mb 66f 67f
9:00  -  mph 1020mb - -
8:54  -  mph 1019.9mb - -
8:48  -  mph - 66f -
8:42  -  mph - 66f -
8:36  -  mph - 66f -
8:30 14
mph
- - -
8:24 11 14 mph - - -
8:18  -  mph 1019.8mb 66f -
8:12  -  mph 1019.7mb 65f -
8:06  -  mph 1019.7mb 65f -
8:00 13 14 mph - - -
7:54 9 13 mph - - -
7:48  -  mph 1019.6mb - -
7:42  -  mph 1019.6mb - -
7:36  -  mph 1019.5mb - -
7:30 13 15 mph 1019.5mb - -
7:24 13 15 mph 1019.4mb - -
7:18  -  mph - 65f 71f
7:12  -  mph - 65f 70f
7:06  -  mph - 65f 70f
7:00 14 15 mph - - -
6:54 14 16 mph - - -
6:48 14 15 mph - - -
6:42 13 14 mph - - -
6:36 11 14 mph - - -
6:30  -  mph 1018.9mb 65f -
6:24  -  mph 1018.9mb 65f -
6:18  -  mph 1018.9mb 65f 70f
6:12  -  mph 1018.9mb 65f 71f
6:06  -  mph 1018.9mb 65f 71f
6:00 14 20 mph - - -
5:54 18 21 mph - - -
5:48  -  mph 1018.8mb 65f 71f
5:42  -  mph 1018.9mb 65f 71f
5:36  -  mph 1018.9mb 65f 71f
5:30 17 18 mph 1018.8mb 65f 71f
5:24 17 20 mph 1018.8mb 65f 72f
5:18 18 20 mph 1018.7mb 65f 72f
5:12 17 20 mph 1018.7mb 65f 72f
5:06 16 20 mph 1018.7mb 66f 72f
5:00 17 20 mph 1018.6mb 66f 72f
4:54 15 16 mph 1018.5mb 66f 72f
4:48 10 13 mph 1018.6mb 66f 71f
4:42 10 15 mph 1018.5mb 66f 71f
4:36 14 21 mph 1018.5mb 66f 71f
4:30 18 21 mph 1018.3mb 66f 71f
4:24 20 22 mph 1018.3mb 66f 71f
4:18 14 15 mph 1018.5mb 66f 71f
4:12 10 15 mph 1018.4mb 66f 70f
4:06 13 16 mph 1018.4mb 66f 70f
4:00 15 17 mph 1018.4mb 67f 71f
3:54 13 16 mph 1018.4mb 67f 70f
3:48 16 17 mph 1018.4mb 67f 71f
3:42 16 17 mph 1018.5mb 67f 71f
3:36 11 14 mph 1018.7mb 67f 70f
3:30 10 13 mph 1018.7mb 67f 69f
3:24 11 15 mph 1018.7mb 67f 69f
3:18 15 16 mph 1018.7mb 67f 69f
3:12 15 16 mph 1018.7mb 66f 70f
3:06 13 17 mph 1018.8mb 66f 70f
3:00 13 14 mph 1018.9mb 66f 70f
2:54 13 14 mph 1018.9mb 66f 71f
2:48 14 16 mph 1018.9mb 65f 70f
2:42 16
mph
1019mb 65f 70f
2:36 15 16 mph 1019mb 66f 70f
2:30 15 16 mph 1019mb 65f 70f
2:24 16 17 mph 1019mb 65f 71f
2:18 16 18 mph 1019mb 65f 71f
2:12 16 18 mph 1019.1mb 65f 71f
2:06 17 18 mph 1019.1mb 65f 71f
2:00 15 18 mph 1019.2mb 65f 71f
1:54 18 20 mph 1019.2mb 65f 71f
1:48 20 21 mph 1019.2mb 65f 71f
1:42 18 21 mph 1019.2mb 64f 70f
1:36 21
mph
1019.3mb 64f 69f
1:30 21 22 mph 1019.3mb 64f 69f
1:24 22 24 mph 1019.4mb 64f 68f
1:18 22 24 mph 1019.4mb 64f 70f
1:12 21 22 mph 1019.5mb 64f 69f
1:06 22 23 mph 1019.6mb 64f 69f
1:00 22 23 mph 1019.6mb 64f 69f
12:54 21 23 mph 1019.7mb 64f 69f
12:48 22
mph
1019.7mb 64f 69f
12:42 21
mph
1019.7mb 64f 69f
12:36 20
mph
1019.8mb 63f 69f
12:30 20 22 mph 1019.9mb 63f 69f
12:24 21 22 mph 1019.8mb 63f 69f
12:18 20 21 mph 1020mb 63f 69f
12:12 20
mph
1019.9mb 62f 69f
12:06 16 17 mph 1020mb 62f 69f
12:00 13 15 mph 1020mb 62f 68f
11:54 14 15 mph 1020.1mb 62f 69f
11:48 13 14 mph 1020.1mb 62f 69f
11:42 11 13 mph 1020.1mb 62f 69f
11:36 11 13 mph 1020.1mb 62f 69f
11:30 13 14 mph 1020.1mb 62f 69f
11:24 14
mph
1020mb 61f 69f
11:18 13 15 mph 1020mb 61f 69f
11:12 15 16 mph 1020mb 62f 68f
11:06 16 17 mph 1020.1mb 62f 69f
11:00 17
mph
1020mb 63f 69f
10:54 16 17 mph 1020mb 64f 69f
10:48 17
mph
1020mb 64f 69f
10:42 16
mph
1020.1mb 64f 68f
10:36 16
mph
1020.1mb 64f 68f
10:30 15 16 mph 1020.1mb 64f 68f
10:24 15 16 mph 1020.1mb 64f 68f
10:18 14
mph
1020mb 64f 68f
10:12 13 14 mph 1020mb 64f 67f
10:06 14
mph
1019.9mb 64f 67f
10:00 14 15 mph 1019.9mb 65f 67f
9:54 14 15 mph 1019.9mb 65f 67f
9:48 14
mph
1019.8mb 65f 67f
9:42 14
mph
1019.8mb 65f 67f
9:36 14 15 mph 1019.8mb 65f 67f
9:30 11 13 mph 1019.8mb 65f 66f
9:24 11 13 mph 1019.9mb 65f 67f
9:18 11 13 mph 1020mb 65f 66f
9:12 11 13 mph 1020mb 65f 67f
9:06 13 14 mph 1020mb 65f 66f
9:00 13 14 mph 1020mb 65f 67f
8:54 14
mph
1020mb 65f 66f
8:48 9 10 mph 1020mb 65f 66f
8:42 10 11 mph 1020.1mb 65f 66f
8:36 10
mph
1020.1mb 65f 66f
8:30 10 11 mph 1020mb 65f 66f
8:24 10 11 mph 1020.1mb 65f 65f
8:18 9 11 mph 1020mb 65f 65f
8:12 11
mph
1020mb 65f 65f
8:06 10 11 mph 1019.9mb 65f 66f
8:00 10
mph
1019.9mb 65f 65f
7:54 9
mph
1020mb 64f 65f
7:48 8
mph
1020mb 64f 65f
7:42 8 9 mph 1020.1mb 64f 65f
7:36 9
mph
1020.1mb 64f 64f
7:30 9
mph
1020.1mb 64f 64f
7:24 9
mph
1020mb 64f 64f
7:18 9 10 mph 1020mb 64f 64f
7:12 9
mph
1020mb 64f 64f
7:06 8 9 mph 1020mb 64f 64f
7:00 8 9 mph 1019.9mb 64f 64f
6:54 8 9 mph 1019.8mb 64f 64f
6:48 8
mph
1019.8mb 64f 64f
6:42 8 9 mph 1019.7mb 64f 64f
6:36 9 10 mph 1019.7mb 64f 64f
6:30 9 10 mph 1019.7mb 64f 63f
6:24 9 11 mph 1019.6mb 64f 63f
6:18 9 10 mph 1019.5mb 64f 63f
6:12 9
mph
1019.5mb 64f 63f
6:06 9 10 mph 1019.5mb 64f 63f
6:00 9 11 mph 1019.3mb 64f 63f
5:54 11
mph
1019.2mb 64f 63f
5:48 10 11 mph 1019.1mb 64f 62f
5:42 11
mph
1019.1mb 64f 62f
5:36 10 11 mph 1019.1mb 64f 62f
5:30 9 10 mph 1019.2mb 64f 62f
5:24 9 10 mph 1019.2mb 64f 62f
5:18 9 10 mph 1019.2mb 64f 62f
5:12 9 10 mph 1019.2mb 64f 62f
5:06 10 11 mph 1019.1mb 63f 62f
5:00 10 11 mph 1019.1mb 63f 62f
4:54 11 13 mph 1019.1mb 63f 62f
4:48 11 13 mph 1019mb 63f 63f
4:42 11 13 mph 1019mb 63f 63f
4:36 10 11 mph 1019mb 63f 63f
4:30 10 13 mph 1018.9mb 63f 63f
4:24 11 14 mph 1018.8mb 63f 63f
4:18 13 14 mph 1018.9mb 63f 63f
4:12 14
mph
1018.9mb 64f 63f
4:06 13
mph
1018.9mb 64f 64f
4:00 11 13 mph 1018.9mb 64f 64f
3:54 13
mph
1018.9mb 64f 64f
3:48 11
mph
1018.9mb 64f 64f
3:42 9 11 mph 1018.9mb 64f 64f
3:36 10 11 mph 1018.9mb 64f 64f
3:30 10 11 mph 1019mb 64f 64f
3:24 10
mph
1018.9mb 64f 64f
3:18 8 9 mph 1019mb 64f 64f
3:12 8 9 mph 1018.9mb 64f 64f
3:06 9 11 mph 1019mb 64f 65f
3:00 9 10 mph 1019.1mb 64f 64f
2:54 10 14 mph 1019.2mb 64f 64f
2:48 13 15 mph 1019.2mb 64f 64f
2:42 13 16 mph 1019.2mb 64f 64f
2:36 13 15 mph 1019.1mb 64f 64f
2:30 13 17 mph 1019mb 64f 63f
2:24 14 16 mph 1019mb 64f 63f
2:18  -  mph 1019mb 64f 63f
2:12  -  mph 1019.2mb 64f 63f
2:06  -  mph 1019.2mb 64f 63f
2:00  -  mph 1019.3mb 64f 63f
1:54  -  mph 1019.2mb 64f 63f
1:48 11 14 mph 1019.1mb 64f 63f
1:42 13 14 mph 1019.1mb 64f 63f
1:36 13 14 mph 1019.1mb 64f 63f
1:30 14 15 mph 1019mb 64f 63f
1:24 13 14 mph 1019mb 64f 63f
1:18 14 15 mph 1019.1mb 64f 63f
1:12 11 14 mph 1019.3mb 64f 64f
1:06 11 13 mph 1019.3mb 64f 64f
1:00 11 13 mph 1019.4mb 64f 63f
12:54 11 13 mph 1019.3mb 64f 63f
12:48 11 14 mph 1019.3mb 64f 64f
12:42 13 16 mph 1019.3mb 64f 64f
12:36 13 15 mph 1019.4mb 64f 64f
12:30 13 18 mph 1019.5mb 64f 64f
12:24 15 18 mph 1019.6mb 64f 65f
12:18 15 17 mph 1019.5mb 64f 65f
12:12 16 18 mph 1019.5mb 64f 66f
12:06 14 17 mph 1019.5mb 64f 65f
12:00 15 18 mph 1019.6mb 64f 65f
Sex 05/27 11:54 15 17 mph 1019.6mb 64f 65f
11:48  -  mph 1019.4mb 64f 65f
11:42  -  mph 1019.4mb 64f 65f
11:36  -  mph 1019.3mb 64f 65f
11:30 14 16 mph 1019.2mb 64f 65f
11:24 14 15 mph 1019.3mb 64f 65f
11:18  -  mph 1019.2mb 64f -
11:12  -  mph 1019.2mb 64f -
11:06  -  mph 1019.2mb 64f -
11:00 15 17 mph 1019.2mb 64f -
10:54 15 23 mph 1019mb 64f -
10:48  -  mph - 64f -
10:42  -  mph - 64f -
10:36  -  mph - 64f -
10:30  -  mph 1019.1mb - -
10:24  -  mph 1019.2mb - -
10:18  -  mph 1019.3mb - 66f
10:12  -  mph 1019.3mb - 65f
10:06  -  mph 1019.3mb - 65f
10:00 15 18 mph 1019.3mb - -
9:54 17 18 mph 1019.1mb - -
9:48  -  mph 1019.2mb 64f -
9:42  -  mph 1019.2mb 64f -
9:36  -  mph 1019mb 64f -
9:30 14 16 mph 1019.1mb 64f -
9:24 14 15 mph 1019mb 64f -
9:18  -  mph 1019mb 64f -
9:12  -  mph 1018.9mb 64f -
9:06  -  mph 1018.9mb 64f -
9:00 15 17 mph 1018.9mb - -
8:54 16 17 mph 1018.6mb - -
8:48  -  mph 1018.6mb 64f -
8:42  -  mph 1018.5mb 64f -
8:36  -  mph 1018.3mb 64f -
8:30 18 20 mph 1018.2mb 64f -
8:24 20 21 mph 1018.2mb 64f -
8:18  -  mph - 64f 64f
8:12  -  mph - 64f 64f
8:06  -  mph - 64f 64f
8:00  -  mph 1018.4mb 64f -
7:54  -  mph 1018.4mb 64f -
7:48  -  mph 1018.4mb 64f -
7:42  -  mph 1018.3mb 64f -
7:36  -  mph 1018.3mb 64f -
7:30 14 15 mph 1018.3mb 64f -
7:24 15 18 mph 1018.2mb 63f -
7:18  -  mph 1018.2mb 63f 67f
7:12  -  mph 1018.3mb 63f 67f
7:06  -  mph 1018.4mb 63f 67f
7:00 17 18 mph 1018.3mb - -
6:54 17 21 mph 1018.3mb - -
6:48 20 22 mph 1018.2mb - -
6:42 21 22 mph 1018.2mb - -
6:36 21 22 mph 1018.2mb - -
6:30 22 23 mph 1018.1mb 63f -
6:24 22 23 mph 1018.1mb 63f -
6:18  -  mph 1018.1mb 63f -
6:12  -  mph 1018mb 63f -
6:06  -  mph 1018mb 63f -
6:00  -  mph 1018mb - -
5:54  -  mph 1017.9mb - -
5:48  -  mph 1017.9mb 63f -
5:42  -  mph 1017.9mb 63f -
5:36  -  mph 1017.9mb 63f -
5:30 21 23 mph 1018mb 63f 67f
5:24 20 23 mph 1018mb 63f 68f
5:18 22 23 mph 1018.1mb 63f 68f
5:12 23
mph
1018mb 63f 69f
5:06 20 21 mph 1018.1mb 63f 68f
5:00 17 22 mph 1018.2mb 63f 69f
4:54 18 21 mph 1018.2mb 63f 69f
4:48 17 23 mph 1018.2mb 63f 69f
4:42 20 21 mph 1018.1mb 63f 69f
4:36 18 20 mph 1018mb 63f 69f
4:30 18 22 mph 1018mb 64f 69f
4:24 21 23 mph 1018mb 64f 70f
4:18 21 23 mph 1018.1mb 64f 69f
4:12 14 18 mph 1018.2mb 64f 68f
4:06 15 18 mph 1018.2mb 64f 68f
4:00 17 20 mph 1018.2mb 64f 69f
3:54 18
mph
1018.3mb 64f 69f
3:48 18
mph
1018.3mb 64f 68f
3:42 18 20 mph 1018.4mb 64f 68f
3:36 18 20 mph 1018.4mb 64f 67f
3:30 18 20 mph 1018.4mb 64f 67f
3:24 20
mph
1018.5mb 64f 67f
3:18 18 20 mph 1018.5mb 64f 66f
3:12 18 20 mph 1018.5mb 64f 66f
3:06 18 20 mph 1018.6mb 64f 66f
3:00 18 20 mph 1018.6mb 64f 65f
2:54 17 18 mph 1018.7mb 64f 65f
2:48 17 18 mph 1018.7mb 64f 65f
2:42 18 20 mph 1018.7mb 64f 65f
2:36 20
mph
1018.8mb 64f 65f
2:30 17 18 mph 1018.8mb 64f 65f
2:24 17 18 mph 1018.9mb 64f 65f
2:18 17 20 mph 1018.8mb 64f 65f
2:12 20 21 mph 1018.7mb 64f 65f
2:06 21
mph
1018.7mb 64f 65f
2:00 20 21 mph 1018.8mb 64f 65f
1:54 18 20 mph 1018.9mb 64f 65f
1:48 18 20 mph 1019mb 64f 65f
1:42 17
mph
1019.2mb 64f 65f
1:36 15 17 mph 1019.3mb 64f 66f
1:30 10 11 mph 1019.4mb 63f 66f
1:24 11 15 mph 1019.4mb 63f 66f
1:18 14
mph
1019.4mb 63f 66f
1:12 11 13 mph 1019.6mb 63f 66f
1:06 9 10 mph 1019.6mb 63f 66f
1:00 7 9 mph 1019.7mb 63f 66f
12:54 7 8 mph 1019.7mb 63f 66f
12:48 7 10 mph 1019.7mb 63f 66f
12:42 9 10 mph 1019.7mb 63f 66f
12:36 11 13 mph 1019.7mb 63f 65f
12:30 13 14 mph 1019.6mb 63f 66f
12:24 11 13 mph 1019.7mb 63f 65f
12:18 9 10 mph 1019.8mb 63f 66f
12:12 9 10 mph 1019.9mb 63f 67f
12:06 9
mph
1020.1mb 63f 67f
12:00 8 9 mph 1020mb 62f 66f
11:54 8
mph
1019.8mb 62f 66f
11:48 8 9 mph 1019.8mb 62f 66f
11:42 7
mph
1019.9mb 62f 65f
11:36 5 6 mph 1020mb 62f 65f
11:30 6
mph
1019.9mb 62f 65f
11:24 5 6 mph 1020mb 62f 65f
11:18 5 6 mph 1020.1mb 62f 65f
11:12 3 5 mph 1020.3mb 62f 65f
11:06 3 6 mph 1020.4mb 62f 65f
11:00 6 8 mph 1020.5mb 61f 65f
10:54 5 6 mph 1020.4mb 61f 64f
10:48 2 3 mph 1020.4mb 61f 65f
10:42 1 2 mph 1020.3mb 61f 65f
10:36  -  1 mph 1020.1mb 60f 65f
10:30  -  1 mph 1020.1mb 60f 65f
10:24  -  mph 1020.1mb 59f 64f
10:18  -  mph 1020.1mb 59f 64f
10:12  -  mph 1020mb 59f 64f
10:06  -  1 mph 1020.1mb 59f 64f
10:00 1 2 mph 1020.1mb 60f 64f
9:54 2
mph
1020.1mb 60f 63f
9:48 2
mph
1020.2mb 61f 63f
9:42 1 2 mph 1020.2mb 61f 62f
9:36 2 3 mph 1020.2mb 62f 62f
9:30 2
mph
1020.2mb 62f 62f
9:24 2 3 mph 1020.2mb 62f 62f
9:18 2 3 mph 1020.2mb 62f 61f
9:12 3
mph
1020.2mb 62f 61f
9:06 3 5 mph 1020.3mb 62f 61f
9:00 5 6 mph 1020.3mb 62f 61f
8:54 6 7 mph 1020.2mb 62f 61f
8:48 6 7 mph 1020.1mb 62f 61f
8:42 6
mph
1020.2mb 62f 61f
8:36 6
mph
1020.1mb 62f 61f
8:30 6 7 mph 1020.2mb 62f 60f
8:24 6 7 mph 1020.2mb 62f 60f
8:18 7 8 mph 1020.2mb 62f 60f
8:12 7 8 mph 1020.1mb 62f 60f
8:06 7 9 mph 1020.1mb 62f 60f
8:00 8 9 mph 1020.1mb 62f 60f
7:54 8 9 mph 1020.1mb 62f 60f
7:48 9 10 mph 1020.2mb 62f 60f
7:42 9 10 mph 1020.3mb 62f 60f
7:36 8 9 mph 1020.3mb 62f 60f
7:30 9 10 mph 1020.3mb 62f 60f
7:24 9 10 mph 1020.4mb 62f 60f
7:18 9 11 mph 1020.5mb 62f 60f
7:12 10 11 mph 1020.4mb 62f 60f
7:06 10 11 mph 1020.4mb 62f 60f
7:00 9 10 mph 1020.3mb 62f 60f
6:54 9 11 mph 1020.4mb 61f 60f
6:48 9 10 mph 1020.4mb 61f 60f
6:42 9 11 mph 1020.3mb 61f 60f
6:36 9 10 mph 1020.4mb 61f 60f
6:30 9 10 mph 1020.3mb 61f 60f
6:24 8 9 mph 1020.3mb 61f 60f
6:18 8 10 mph 1020.3mb 62f 60f
6:12 9 10 mph 1020.2mb 62f 60f
6:06 10 11 mph 1020.2mb 62f 60f
6:00 10 11 mph 1020.1mb 62f 60f
5:54 10 11 mph 1020.1mb 62f 60f
5:48 11
mph
1020mb 62f 60f
5:42 11 13 mph 1020mb 62f 60f
5:36 10 13 mph 1020.1mb 62f 60f
5:30 10 11 mph 1020.1mb 62f 60f
5:24 10 11 mph 1020mb 62f 60f
5:18 10 11 mph 1020mb 62f 60f
5:12 10 11 mph 1020mb 62f 60f
5:06 9 10 mph 1020mb 62f 60f
5:00 10 11 mph 1019.9mb 62f 60f
4:54 11
mph
1020mb 62f 60f
4:48 11
mph
1020mb 62f 60f
4:42 10 13 mph 1020.1mb 62f 60f
4:36 11 13 mph 1019.9mb 62f 60f
4:30 10 11 mph 1020mb 62f 60f
4:24 10 11 mph 1019.9mb 62f 60f
4:18 10 11 mph 1019.8mb 62f 60f
4:12 9 11 mph 1019.8mb 62f 60f
4:06 9 11 mph 1019.8mb 62f 60f
4:00 10 11 mph 1019.8mb 62f 60f
3:54 9 10 mph 1019.8mb 62f 61f
3:48 9 10 mph 1019.8mb 62f 61f
3:42 7 8 mph 1019.8mb 62f 61f
3:36 8 9 mph 1019.8mb 62f 61f
3:30 7 8 mph 1019.8mb 62f 61f
3:24 7 9 mph 1019.7mb 62f 61f
3:18 8 9 mph 1019.8mb 62f 61f
3:12 8 9 mph 1019.7mb 62f 61f
3:06 8
mph
1019.8mb 62f 61f
3:00 7 8 mph 1019.9mb 62f 61f
2:54 7 9 mph 1019.9mb 62f 61f
2:48 8 10 mph 1019.8mb 63f 62f
2:42 9 10 mph 1019.8mb 63f 62f
2:36 10 13 mph 1019.8mb 63f 62f
2:30 11 14 mph 1019.6mb 63f 62f
2:24 13 14 mph 1019.5mb 63f 62f
2:18 13
mph
1019.6mb 63f 62f
2:12 11 13 mph 1019.5mb 63f 62f
2:06 10 11 mph 1019.5mb 63f 62f
2:00  -  mph 1019.4mb 63f 62f
1:54  -  mph 1019.5mb 63f 62f
1:48  -  mph 1019.4mb 63f 62f
1:42  -  mph 1019.4mb 63f 63f
1:36  -  mph 1019.4mb 63f 62f
1:30 13 15 mph 1019.3mb 63f 62f
1:24 13 14 mph 1019.3mb 63f 62f
1:18 11 13 mph 1019.3mb 63f 62f
1:12 13 14 mph 1019.3mb 63f 63f
1:06 11 13 mph 1019.4mb 63f 63f
1:00 13
mph
1019.4mb 63f 63f
12:54 11 13 mph 1019.5mb 63f 63f
12:48 10 11 mph 1019.6mb 63f 62f
12:42 10
mph
1019.6mb 63f 62f
12:36 10
mph
1019.6mb 63f 63f
12:30 9
mph
1019.6mb 63f 63f
12:24 7 8 mph 1019.6mb 63f 63f
12:18 8 10 mph 1019.6mb 63f 62f
12:12 10 13 mph 1019.5mb 63f 63f
12:06 11
mph
1019.5mb 63f 63f
12:00 10 11 mph 1019.6mb 63f 64f
Qui 05/26 11:54 10 13 mph 1019.5mb 63f 64f
11:48  -  mph 1019.4mb 63f 64f
11:42  -  mph 1019.3mb 63f 64f
11:36  -  mph 1019.4mb 63f 64f
11:30 14 15 mph 1019.5mb 62f 64f
11:24 11 14 mph 1019.6mb 62f 64f
11:18  -  mph 1019.7mb 62f -
11:12  -  mph 1019.6mb 62f -
11:06  -  mph 1019.5mb 62f -
11:00  -  mph 1019.5mb 62f -
10:54  -  mph 1019.4mb 62f -
10:48 13 14 mph 1019.4mb - -
10:42 11 14 mph 1019.5mb - -
10:36 13 14 mph 1019.4mb - -
10:30 11 14 mph - - -
10:24 14 15 mph - - -
10:18  -  mph 1019.4mb 60f 64f
10:12  -  mph 1019.4mb 60f 64f
10:06  -  mph 1019.5mb 60f 64f
10:00  -  mph 1019.4mb - -
9:54  -  mph 1019.2mb - -
9:48  -  mph 1019.2mb - -
9:42  -  mph 1019.1mb - -
9:36  -  mph 1019mb - -
9:30 11 13 mph 1019mb - -
9:24 10 11 mph 1018.9mb - -
9:18  -  mph 1018.9mb 61f -
9:12  -  mph 1018.8mb 62f -
9:06  -  mph 1018.6mb 62f -
9:00  -  mph 1018.6mb - -
8:54  -  mph 1018.5mb - -
8:48  -  mph 1018.4mb - -
8:42  -  mph 1018.3mb - -
8:36  -  mph 1018.2mb - -
8:30 13 14 mph 1018.1mb 64f -
8:24 14 15 mph 1018.1mb 64f -
8:18  -  mph - 64f 65f
8:12  -  mph - 64f 67f
8:06  -  mph - 64f 67f
8:00  -  mph 1018mb - -
7:54  -  mph 1018mb - -
7:48  -  mph - 65f -
7:42  -  mph - 65f -
7:36  -  mph - 65f -
7:30 10 11 mph 1018.2mb 65f -
7:24 11 14 mph 1018.3mb 65f -
7:18  -  mph - 65f 68f
7:12  -  mph - 65f 68f
7:06  -  mph - 65f 68f
7:00 14 18 mph 1018mb - -
6:54 17
mph
1017.9mb - -
6:48 16 17 mph 1017.9mb - -
6:42 15 16 mph 1017.9mb - -